Wetterdaten: Woche 19.07.10 - 25.07.10 (KW29)
Datum Zeit Temp. A. Feuchte A. Luftdruck Regen Wind Richtung Taupunkt Windchill Windben
19.07.2010 00:00 15,2 C 76 % 1021,8 hPa 0,0 l/m 0,0 km/h O 11,0 C 15,2 C 0,0 km/h
19.07.2010 01:00 13,6 C 81 % 1021,2 hPa 0,0 l/m 0,0 km/h NO 10,4 C 13,6 C 0,0 km/h
19.07.2010 02:00 12,7 C 83 % 1021,1 hPa 0,0 l/m 0,0 km/h N-NO 9,9 C 12,7 C 0,0 km/h
19.07.2010 03:00 12,4 C 86 % 1020,5 hPa 0,0 l/m 0,0 km/h N-NO 10,1 C 12,4 C 0,0 km/h
19.07.2010 04:00 10,7 C 87 % 1020,1 hPa 0,0 l/m 0,0 km/h O-SO 8,6 C 10,7 C 0,0 km/h
19.07.2010 05:00 10,6 C 89 % 1020,3 hPa 0,0 l/m 0,0 km/h S 8,9 C 10,6 C 0,0 km/h
19.07.2010 06:00 10,5 C 91 % 1020,5 hPa 0,0 l/m 0,0 km/h SW 9,1 C 10,5 C 0,0 km/h
19.07.2010 07:00 12,8 C 91 % 1020,4 hPa 0,0 l/m 0,0 km/h W 11,4 C 12,8 C 0,0 km/h
19.07.2010 08:00 22,6 C 64 % 1020,6 hPa 0,0 l/m 9,7 km/h W-NW 15,4 C 21,6 C 5,4 km/h
19.07.2010 09:00 25,9 C 50 % 1020,2 hPa 0,0 l/m 5,8 km/h W-NW 14,7 C 25,9 C 3,2 km/h
19.07.2010 10:00 30,2 C 39 % 1019,7 hPa 0,0 l/m 7,8 km/h NO 14,7 C 30,1 C 4,3 km/h
19.07.2010 11:00 30,8 C 33 % 1019,4 hPa 0,0 l/m 0,6 km/h N-NO 12,6 C 30,8 C 0,4 km/h
19.07.2010 12:00 30,1 C 34 % 1019,1 hPa 0,0 l/m 9,1 km/h N-NW 12,5 C 29,9 C 5,0 km/h
19.07.2010 13:00 30,7 C 32 % 1018,6 hPa 0,0 l/m 3,2 km/h O-NO 12,1 C 30,7 C 1,8 km/h
19.07.2010 14:00 31,5 C 29 % 1018,0 hPa 0,0 l/m 1,9 km/h N 11,3 C 31,5 C 1,1 km/h
19.07.2010 15:00 33,2 C 27 % 1017,5 hPa 0,0 l/m 19,4 km/h N-NO 11,6 C 33,2 C 10,8 km/h
19.07.2010 16:00 35,2 C 25 % 1017,4 hPa 0,0 l/m 25,3 km/h N 12,2 C 35,2 C 14,0 km/h
19.07.2010 17:00 35,2 C 25 % 1017,0 hPa 0,0 l/m 3,9 km/h N 12,2 C 35,2 C 2,2 km/h
19.07.2010 18:00 33,4 C 26 % 1016,6 hPa 0,0 l/m 16,8 km/h N 11,2 C 33,4 C 9,4 km/h
19.07.2010 19:00 31,7 C 28 % 1016,3 hPa 0,0 l/m 0,0 km/h N 10,9 C 31,7 C 0,0 km/h
19.07.2010 20:00 25,6 C 39 % 1016,5 hPa 0,0 l/m 0,0 km/h O-NO 10,6 C 25,6 C 0,0 km/h
19.07.2010 21:00 23,3 C 44 % 1016,7 hPa 0,0 l/m 0,0 km/h W 10,4 C 23,3 C 0,0 km/h
19.07.2010 22:00 21,9 C 49 % 1017,0 hPa 0,0 l/m 0,0 km/h W-SW 10,7 C 21,9 C 0,0 km/h
19.07.2010 23:00 17,3 C 62 % 1016,7 hPa 0,0 l/m 0,0 km/h O-SO 9,9 C 17,3 C 0,0 km/h
20.07.2010 00:00 16,8 C 67 % 1016,4 hPa 0,0 l/m 0,0 km/h O-SO 10,6 C 16,8 C 0,0 km/h
20.07.2010 01:00 15,0 C 75 % 1016,1 hPa 0,0 l/m 0,0 km/h S-SO 10,6 C 15,0 C 0,0 km/h
20.07.2010 02:00 15,9 C 75 % 1015,5 hPa 0,0 l/m 0,0 km/h SO 11,5 C 15,9 C 0,0 km/h
20.07.2010 03:00 14,3 C 77 % 1014,8 hPa 0,0 l/m 4,5 km/h N-NO 10,3 C 14,3 C 2,5 km/h
20.07.2010 04:00 14,2 C 79 % 1014,9 hPa 0,0 l/m 0,0 km/h NO 10,6 C 14,2 C 0,0 km/h
20.07.2010 05:00 12,3 C 84 % 1014,8 hPa 0,0 l/m 0,0 km/h O-SO 9,7 C 12,3 C 0,0 km/h
20.07.2010 06:00 13,0 C 85 % 1014,4 hPa 0,0 l/m 0,0 km/h NO 10,5 C 13,0 C 0,0 km/h
20.07.2010 07:00 15,7 C 80 % 1014,4 hPa 0,0 l/m 0,0 km/h W 12,3 C 15,7 C 0,0 km/h
20.07.2010 08:00 26,6 C 50 % 1014,0 hPa 0,0 l/m 0,6 km/h N-NO 15,3 C 26,6 C 0,4 km/h
20.07.2010 09:00 27,8 C 46 % 1014,1 hPa 0,0 l/m 3,2 km/h NW 15,1 C 27,8 C 1,8 km/h
20.07.2010 10:00 30,8 C 40 % 1013,6 hPa 0,0 l/m 11,7 km/h W-SW 15,6 C 30,5 C 6,5 km/h
20.07.2010 11:00 31,8 C 37 % 1013,2 hPa 0,0 l/m 13,0 km/h S-SW 15,3 C 31,6 C 7,2 km/h
20.07.2010 12:00 30,5 C 41 % 1012,8 hPa 0,0 l/m 19,4 km/h W-SW 15,7 C 29,8 C 10,8 km/h
20.07.2010 13:00 31,4 C 40 % 1012,3 hPa 0,0 l/m 23,3 km/h N 16,1 C 30,9 C 13,0 km/h
20.07.2010 14:00 32,3 C 38 % 1011,6 hPa 0,0 l/m 0,0 km/h N 16,1 C 32,3 C 0,0 km/h
20.07.2010 15:00 34,1 C 34 % 1010,9 hPa 0,0 l/m 13,0 km/h W-SW 16,0 C 34,1 C 7,2 km/h
20.07.2010 16:00 37,3 C 30 % 1010,5 hPa 0,0 l/m 14,3 km/h W-NW 16,8 C 37,3 C 7,9 km/h
20.07.2010 17:00 37,8 C 29 % 1009,7 hPa 0,0 l/m 0,0 km/h SO 16,7 C 37,8 C 0,0 km/h
20.07.2010 18:00 38,6 C 24 % 1009,0 hPa 0,0 l/m 1,9 km/h W 14,4 C 38,6 C 1,1 km/h
20.07.2010 19:00 34,9 C 29 % 1008,9 hPa 0,0 l/m 14,3 km/h N-NW 14,2 C 34,9 C 7,9 km/h
20.07.2010 20:00 27,6 C 41 % 1008,7 hPa 0,0 l/m 0,0 km/h NO 13,1 C 27,6 C 0,0 km/h
20.07.2010 21:00 23,1 C 59 % 1008,8 hPa 0,0 l/m 0,0 km/h SO 14,6 C 23,1 C 0,0 km/h
20.07.2010 22:00 20,8 C 66 % 1008,9 hPa 0,0 l/m 0,0 km/h NO 14,2 C 20,8 C 0,0 km/h
20.07.2010 23:00 19,9 C 71 % 1008,8 hPa 0,0 l/m 0,0 km/h O 14,5 C 19,9 C 0,0 km/h
21.07.2010 00:00 18,8 C 75 % 1008,8 hPa 0,0 l/m 0,0 km/h NO 14,3 C 18,8 C 0,0 km/h
21.07.2010 01:00 17,5 C 78 % 1008,8 hPa 0,0 l/m 0,0 km/h NO 13,6 C 17,5 C 0,0 km/h
21.07.2010 02:00 17,3 C 81 % 1008,4 hPa 0,0 l/m 0,0 km/h NO 14,0 C 17,3 C 0,0 km/h
21.07.2010 03:00 16,3 C 84 % 1008,2 hPa 0,0 l/m 0,0 km/h NO 13,6 C 16,3 C 0,0 km/h
21.07.2010 04:00 16,1 C 84 % 1008,1 hPa 0,0 l/m 0,0 km/h NO 13,4 C 16,1 C 0,0 km/h
21.07.2010 05:00 15,8 C 85 % 1008,1 hPa 0,0 l/m 0,0 km/h N-NO 13,3 C 15,8 C 0,0 km/h
21.07.2010 06:00 16,0 C 85 % 1008,2 hPa 0,0 l/m 0,0 km/h SO 13,5 C 16,0 C 0,0 km/h
21.07.2010 07:00 18,4 C 80 % 1008,3 hPa 0,0 l/m 0,0 km/h O 14,9 C 18,4 C 0,0 km/h
21.07.2010 08:00 25,9 C 60 % 1008,7 hPa 0,0 l/m 0,0 km/h S-SW 17,5 C 25,9 C 0,0 km/h
21.07.2010 09:00 32,4 C 41 % 1008,9 hPa 0,0 l/m 20,1 km/h S-SW 17,4 C 32,2 C 11,2 km/h
21.07.2010 10:00 32,6 C 34 % 1009,2 hPa 0,0 l/m 20,7 km/h S-SW 14,7 C 32,5 C 11,5 km/h
21.07.2010 11:00 34,1 C 33 % 1008,9 hPa 0,0 l/m 11,7 km/h SW 15,5 C 34,1 C 6,5 km/h
21.07.2010 12:00 32,8 C 35 % 1009,0 hPa 0,0 l/m 20,1 km/h SW 15,3 C 32,7 C 11,2 km/h
21.07.2010 13:00 33,9 C 34 % 1008,5 hPa 0,0 l/m 28,5 km/h NW 15,8 C 33,9 C 15,8 km/h
21.07.2010 14:00 35,6 C 30 % 1008,2 hPa 0,0 l/m 0,0 km/h S 15,3 C 35,6 C 0,0 km/h
21.07.2010 15:00 36,9 C 26 % 1007,7 hPa 0,0 l/m 23,3 km/h W 14,2 C 36,9 C 13,0 km/h
21.07.2010 16:00 39,3 C 24 % 1007,3 hPa 0,0 l/m 11,7 km/h W-NW 15,0 C 39,3 C 6,5 km/h
21.07.2010 17:00 35,3 C 28 % 1007,3 hPa 0,0 l/m 20,7 km/h SW 14,0 C 35,3 C 11,5 km/h
21.07.2010 18:00 33,3 C 33 % 1008,0 hPa 0,0 l/m 14,3 km/h W 14,8 C 33,3 C 7,9 km/h
21.07.2010 19:00 31,9 C 34 % 1008,3 hPa 0,0 l/m 0,0 km/h N 14,1 C 31,9 C 0,0 km/h
21.07.2010 20:00 28,1 C 41 % 1008,8 hPa 0,0 l/m 0,0 km/h O-NO 13,6 C 28,1 C 0,0 km/h
21.07.2010 21:00 24,9 C 55 % 1009,6 hPa 0,0 l/m 0,0 km/h N 15,2 C 24,9 C 0,0 km/h
21.07.2010 22:00 24,4 C 55 % 1011,6 hPa 0,0 l/m 2,6 km/h NO 14,8 C 24,4 C 1,4 km/h
21.07.2010 23:00 21,9 C 64 % 1011,9 hPa 0,0 l/m 0,0 km/h W-NW 14,8 C 21,9 C 0,0 km/h
22.07.2010 00:00 20,1 C 77 % 1012,4 hPa 0,0 l/m 0,0 km/h O-SO 15,9 C 20,1 C 0,0 km/h
22.07.2010 01:00 19,3 C 85 % 1011,8 hPa 0,0 l/m 1,9 km/h SO 16,7 C 19,3 C 1,1 km/h
22.07.2010 02:00 18,5 C 85 % 1010,9 hPa 0,0 l/m 1,3 km/h W 15,9 C 18,5 C 0,7 km/h
22.07.2010 03:00 17,9 C 88 % 1011,3 hPa 0,0 l/m 0,0 km/h SO 15,9 C 17,9 C 0,0 km/h
22.07.2010 04:00 18,3 C 89 % 1011,3 hPa 0,0 l/m 0,0 km/h NO 16,5 C 18,3 C 0,0 km/h
22.07.2010 05:00 18,1 C 90 % 1011,8 hPa 0,4 l/m 0,0 km/h SO 16,4 C 18,1 C 0,0 km/h
22.07.2010 06:00 18,4 C 91 % 1012,0 hPa 0,0 l/m 0,0 km/h O-NO 16,9 C 18,4 C 0,0 km/h
22.07.2010 07:00 19,2 C 88 % 1011,9 hPa 0,0 l/m 0,0 km/h SO 17,2 C 19,2 C 0,0 km/h
22.07.2010 08:00 23,3 C 79 % 1012,2 hPa 0,0 l/m 0,0 km/h S-SO 19,4 C 23,3 C 0,0 km/h
22.07.2010 09:00 24,5 C 70 % 1012,6 hPa 0,0 l/m 0,0 km/h W 18,7 C 24,5 C 0,0 km/h
22.07.2010 10:00 24,4 C 73 % 1012,9 hPa 0,0 l/m 2,6 km/h N 19,2 C 24,4 C 1,4 km/h
22.07.2010 11:00 23,9 C 70 % 1013,5 hPa 0,0 l/m 0,0 km/h N 18,1 C 23,9 C 0,0 km/h
22.07.2010 12:00 23,9 C 71 % 1013,6 hPa 0,0 l/m 10,4 km/h O-NO 18,3 C 22,9 C 5,8 km/h
22.07.2010 13:00 25,8 C 68 % 1013,2 hPa 0,0 l/m 0,0 km/h W-NW 19,4 C 25,8 C 0,0 km/h
22.07.2010 14:00 22,6 C 77 % 1013,0 hPa 0,0 l/m 0,0 km/h W-NW 18,4 C 22,6 C 0,0 km/h
22.07.2010 15:00 20,1 C 88 % 1013,5 hPa 3,6 l/m 0,0 km/h W 18,0 C 20,1 C 0,0 km/h
22.07.2010 16:00 21,9 C 85 % 1013,5 hPa 0,4 l/m 0,0 km/h S-SW 19,3 C 21,9 C 0,0 km/h
22.07.2010 17:00 21,6 C 82 % 1013,5 hPa 0,0 l/m 0,0 km/h S-SW 18,4 C 21,6 C 0,0 km/h
22.07.2010 18:00 21,0 C 83 % 1013,6 hPa 0,0 l/m 0,0 km/h SO 18,0 C 21,0 C 0,0 km/h
22.07.2010 19:00 20,1 C 87 % 1013,9 hPa 0,0 l/m 0,0 km/h N-NO 17,9 C 20,1 C 0,0 km/h
22.07.2010 20:00 19,3 C 89 % 1014,3 hPa 0,4 l/m 0,0 km/h O 17,4 C 19,3 C 0,0 km/h
22.07.2010 21:00 18,9 C 91 % 1015,1 hPa 0,0 l/m 0,0 km/h SO 17,4 C 18,9 C 0,0 km/h
22.07.2010 22:00 18,6 C 92 % 1015,5 hPa 0,0 l/m 7,1 km/h SO 17,3 C 18,3 C 4,0 km/h
22.07.2010 23:00 17,9 C 92 % 1015,6 hPa 0,0 l/m 2,6 km/h SO 16,6 C 17,9 C 1,4 km/h
23.07.2010 00:00 17,8 C 93 % 1015,8 hPa 0,0 l/m 0,0 km/h O-NO 16,7 C 17,8 C 0,0 km/h
23.07.2010 01:00 17,6 C 93 % 1015,5 hPa 0,0 l/m 0,0 km/h O 16,5 C 17,6 C 0,0 km/h
23.07.2010 02:00 17,6 C 93 % 1015,5 hPa 0,4 l/m 0,0 km/h O-NO 16,5 C 17,6 C 0,0 km/h
23.07.2010 03:00 17,5 C 94 % 1015,3 hPa 0,0 l/m 0,0 km/h SO 16,5 C 17,5 C 0,0 km/h
23.07.2010 04:00 17,6 C 94 % 1015,2 hPa 0,0 l/m 0,0 km/h SO 16,6 C 17,6 C 0,0 km/h
23.07.2010 05:00 17,5 C 94 % 1014,9 hPa 0,0 l/m 0,0 km/h SO 16,5 C 17,5 C 0,0 km/h
23.07.2010 06:00 17,8 C 94 % 1015,3 hPa 0,0 l/m 0,0 km/h S-SW 16,8 C 17,8 C 0,0 km/h
23.07.2010 07:00 18,2 C 93 % 1015,1 hPa 0,0 l/m 0,6 km/h NW 17,0 C 18,2 C 0,4 km/h
23.07.2010 08:00 17,1 C 90 % 1015,9 hPa 0,0 l/m 0,0 km/h SW 15,4 C 17,1 C 0,0 km/h
23.07.2010 09:00 17,3 C 89 % 1015,9 hPa 0,0 l/m 0,0 km/h N 15,5 C 17,3 C 0,0 km/h
23.07.2010 10:00 17,6 C 89 % 1015,9 hPa 0,0 l/m 0,0 km/h N-NO 15,8 C 17,6 C 0,0 km/h
23.07.2010 11:00 18,2 C 86 % 1016,1 hPa 0,0 l/m 0,0 km/h W-NW 15,8 C 18,2 C 0,0 km/h
23.07.2010 12:00 18,6 C 85 % 1015,1 hPa 0,0 l/m 0,0 km/h NW 16,0 C 18,6 C 0,0 km/h
23.07.2010 13:00 17,2 C 88 % 1015,7 hPa 0,0 l/m 4,5 km/h S 15,2 C 17,2 C 2,5 km/h
23.07.2010 14:00 16,1 C 92 % 1016,1 hPa 2,5 l/m 6,5 km/h S 14,8 C 16,1 C 3,6 km/h
23.07.2010 15:00 16,4 C 91 % 1016,4 hPa 1,1 l/m 14,3 km/h S-SO 14,9 C 13,1 C 7,9 km/h
23.07.2010 16:00 16,4 C 92 % 1017,4 hPa 0,7 l/m 14,9 km/h SW 15,1 C 12,9 C 8,3 km/h
23.07.2010 17:00 16,9 C 87 % 1017,5 hPa 0,0 l/m 14,3 km/h S 14,7 C 13,7 C 7,9 km/h
23.07.2010 18:00 15,4 C 91 % 1018,1 hPa 0,7 l/m 0,0 km/h S-SW 13,9 C 15,4 C 0,0 km/h
23.07.2010 19:00 16,2 C 90 % 1018,2 hPa 0,0 l/m 0,0 km/h S-SO 14,6 C 16,2 C 0,0 km/h
23.07.2010 20:00 15,9 C 88 % 1017,9 hPa 0,0 l/m 1,3 km/h SO 13,9 C 15,9 C 0,7 km/h
23.07.2010 21:00 14,1 C 91 % 1018,5 hPa 0,0 l/m 0,0 km/h N-NO 12,7 C 14,1 C 0,0 km/h
23.07.2010 22:00 13,3 C 93 % 1018,7 hPa 0,0 l/m 2,6 km/h O-NO 12,2 C 13,3 C 1,4 km/h
23.07.2010 23:00 13,9 C 94 % 1018,7 hPa 0,0 l/m 0,0 km/h W-SW 12,9 C 13,9 C 0,0 km/h
24.07.2010 00:00 14,2 C 93 % 1018,8 hPa 0,0 l/m 0,0 km/h W-SW 13,1 C 14,2 C 0,0 km/h
24.07.2010 01:00 13,9 C 89 % 1019,1 hPa 0,0 l/m 0,0 km/h W 12,1 C 13,9 C 0,0 km/h
24.07.2010 02:00 13,5 C 91 % 1019,3 hPa 0,0 l/m 0,0 km/h N-NO 12,1 C 13,5 C 0,0 km/h
24.07.2010 03:00 13,3 C 93 % 1018,9 hPa 0,0 l/m 0,0 km/h NO 12,2 C 13,3 C 0,0 km/h
24.07.2010 04:00 13,3 C 93 % 1019,0 hPa 0,0 l/m 0,0 km/h O-SO 12,2 C 13,3 C 0,0 km/h
24.07.2010 05:00 13,3 C 93 % 1019,2 hPa 0,4 l/m 0,0 km/h SO 12,2 C 13,3 C 0,0 km/h
24.07.2010 06:00 13,3 C 94 % 1019,3 hPa 0,7 l/m 0,0 km/h SW 12,4 C 13,3 C 0,0 km/h
24.07.2010 07:00 13,6 C 94 % 1019,6 hPa 0,4 l/m 0,0 km/h SW 12,7 C 13,6 C 0,0 km/h
24.07.2010 08:00 14,3 C 93 % 1019,6 hPa 0,0 l/m 7,8 km/h W-SW 13,2 C 13,5 C 4,3 km/h
24.07.2010 09:00 13,8 C 94 % 1020,1 hPa 0,4 l/m 0,0 km/h W-SW 12,9 C 13,8 C 0,0 km/h
24.07.2010 10:00 13,8 C 94 % 1020,5 hPa 0,7 l/m 10,4 km/h SW 12,9 C 11,6 C 5,8 km/h
24.07.2010 11:00 13,9 C 94 % 1020,6 hPa 1,1 l/m 3,2 km/h SW 12,9 C 13,9 C 1,8 km/h
24.07.2010 12:00 14,9 C 94 % 1020,8 hPa 0,0 l/m 7,8 km/h S 13,9 C 14,1 C 4,3 km/h
24.07.2010 13:00 17,9 C 86 % 1020,5 hPa 0,0 l/m 9,1 km/h SO 15,5 C 16,7 C 5,0 km/h
24.07.2010 14:00 21,1 C 76 % 1020,1 hPa 0,0 l/m 13,0 km/h S-SW 16,7 C 19,0 C 7,2 km/h
24.07.2010 15:00 21,6 C 65 % 1019,8 hPa 0,0 l/m 0,0 km/h SO 14,7 C 21,6 C 0,0 km/h
24.07.2010 16:00 21,1 C 68 % 1019,6 hPa 0,0 l/m 4,5 km/h NO 15,0 C 21,1 C 2,5 km/h
24.07.2010 17:00 21,2 C 66 % 1019,4 hPa 0,0 l/m 0,0 km/h W 14,6 C 21,2 C 0,0 km/h
24.07.2010 18:00 20,9 C 60 % 1019,0 hPa 0,0 l/m 0,0 km/h W-NW 12,8 C 20,9 C 0,0 km/h
24.07.2010 19:00 21,0 C 58 % 1018,8 hPa 0,0 l/m 0,0 km/h W 12,4 C 21,0 C 0,0 km/h
24.07.2010 20:00 18,4 C 66 % 1019,1 hPa 0,0 l/m 0,0 km/h O-NO 11,9 C 18,4 C 0,0 km/h
24.07.2010 21:00 14,8 C 84 % 1019,2 hPa 0,0 l/m 0,0 km/h O-NO 12,1 C 14,8 C 0,0 km/h
24.07.2010 22:00 14,4 C 87 % 1019,4 hPa 0,0 l/m 14,3 km/h SO 12,3 C 10,7 C 7,9 km/h
24.07.2010 23:00 13,9 C 88 % 1019,4 hPa 0,0 l/m 0,0 km/h O-SO 11,9 C 13,9 C 0,0 km/h
25.07.2010 00:00 13,2 C 90 % 1019,1 hPa 0,0 l/m 0,0 km/h O-SO 11,6 C 13,2 C 0,0 km/h
25.07.2010 01:00 11,8 C 92 % 1018,7 hPa 0,0 l/m 0,0 km/h O-SO 10,5 C 11,8 C 0,0 km/h
25.07.2010 02:00 10,8 C 92 % 1018,5 hPa 0,0 l/m 0,0 km/h SO 9,6 C 10,8 C 0,0 km/h
25.07.2010 03:00 10,3 C 93 % 1018,1 hPa 0,0 l/m 0,0 km/h O 9,2 C 10,3 C 0,0 km/h
25.07.2010 04:00 9,6 C 93 % 1017,8 hPa 0,0 l/m 0,0 km/h O 8,5 C 9,6 C 0,0 km/h
25.07.2010 05:00 9,3 C 94 % 1017,9 hPa 0,0 l/m 0,0 km/h NO 8,4 C 9,3 C 0,0 km/h
25.07.2010 06:00 9,0 C 94 % 1018,0 hPa 0,0 l/m 0,0 km/h O-NO 8,1 C 9,0 C 0,0 km/h
25.07.2010 07:00 10,3 C 94 % 1017,9 hPa 0,0 l/m 0,0 km/h SO 9,4 C 10,3 C 0,0 km/h
25.07.2010 08:00 16,5 C 87 % 1018,1 hPa 0,0 l/m 5,2 km/h N 14,3 C 16,5 C 2,9 km/h
25.07.2010 09:00 22,5 C 59 % 1017,6 hPa 0,0 l/m 0,0 km/h S-SO 14,1 C 22,5 C 0,0 km/h
25.07.2010 10:00 23,9 C 50 % 1017,4 hPa 0,0 l/m 0,0 km/h W 12,8 C 23,9 C 0,0 km/h
25.07.2010 11:00 25,9 C 37 % 1017,0 hPa 0,0 l/m 7,8 km/h W-SW 10,1 C 25,6 C 4,3 km/h
25.07.2010 12:00 24,8 C 39 % 1016,4 hPa 0,0 l/m 0,0 km/h W 9,9 C 24,8 C 0,0 km/h
25.07.2010 13:00 24,9 C 39 % 1016,0 hPa 0,0 l/m 0,0 km/h N-NO 10,0 C 24,9 C 0,0 km/h
25.07.2010 14:00 26,2 C 39 % 1015,8 hPa 0,0 l/m 0,0 km/h N-NO 11,1 C 26,2 C 0,0 km/h
25.07.2010 15:00 24,6 C 39 % 1015,4 hPa 0,0 l/m 2,6 km/h W 9,7 C 24,6 C 1,4 km/h
25.07.2010 16:00 25,4 C 40 % 1015,2 hPa 0,0 l/m 0,0 km/h N 10,8 C 25,4 C 0,0 km/h
25.07.2010 17:00 24,9 C 41 % 1014,9 hPa 0,0 l/m 0,0 km/h W-SW 10,7 C 24,9 C 0,0 km/h
25.07.2010 18:00 23,6 C 43 % 1014,7 hPa 0,0 l/m 7,1 km/h W 10,3 C 23,4 C 4,0 km/h
25.07.2010 19:00 20,0 C 53 % 1014,6 hPa 0,0 l/m 0,0 km/h N-NO 10,1 C 20,0 C 0,0 km/h
25.07.2010 20:00 18,5 C 64 % 1014,4 hPa 0,0 l/m 0,0 km/h N-NO 11,6 C 18,5 C 0,0 km/h
25.07.2010 21:00 16,6 C 71 % 1014,6 hPa 0,0 l/m 0,0 km/h SO 11,3 C 16,6 C 0,0 km/h
25.07.2010 22:00 15,9 C 76 % 1014,5 hPa 0,0 l/m 3,2 km/h S 11,7 C 15,9 C 1,8 km/h
25.07.2010 23:00 15,6 C 80 % 1014,7 hPa 0,0 l/m 0,0 km/h SO 12,2 C 15,6 C 0,0 km/h
Min-Datum _ 25.07.10 20.07.10 21.07.10 - 19.07.10 - 25.07.10 25.07.10 19.07.10
_ Min-Zeit 06:30 18:30 16:30 - 00:30 - 06:30 06:30 00:30
Minimum _ 9,0 C 24 % 1007,3 hPa - 0,0 km/h - 8,1 C 9,0 C 0,0 km/h
Max-Datum _ 21.07.10 23.07.10 19.07.10 22.07.10 21.07.10 - 22.07.10 21.07.10 21.07.10
_ Max-Zeit 16:30 03:30 00:30 15:30 13:30 - 08:30 16:30 13:30
Maximum _ 39,3 C 94 % 1021,8 hPa 3,6 l/m 28,5 km/h
NW
- 19,4 C 39,3 C 15,8 km/h
NW
Durchschnitt _ 20,9 C 69 % 1015,1 hPa #13,5 l/m 3,4 km/h SO 13,8 C 20,8 C 1,9 km/h